ADDS METAR Data INFO
IDs: Format: Raw Decoded Include TAF

Data at: 0838 UTC 21 Oct 2017

KSPW 210753Z AUTO 17019G29KT 10SM CLR 18/13 A2964 RMK AO2 PK WND 17029/0750 SLP031 T01780133
KSPW 210653Z AUTO 17017G24KT 10SM CLR 18/13 A2966 RMK AO2 PK WND 16028/0622 SLP037 T01780133
KSPW 210553Z AUTO 17019G25KT 10SM CLR 18/13 A2967 RMK AO2 PK WND 17027/0456 SLP040 T01780133 10206 20178 402500094 58005
KSPW 210453Z AUTO 17021G26KT 10SM CLR 18/13 A2968 RMK AO2 PK WND 17029/0420 SLP044 T01780133
KSPW 210353Z AUTO 17022G28KT 10SM CLR 18/13 A2969 RMK AO2 PK WND 17032/0305 SLP047 T01830133
KSPW 210253Z AUTO 17021G29KT 10SM CLR 19/13 A2969 RMK AO2 PK WND 17033/0222 SLP048 T01940133 55004
KSPW 210153Z AUTO 16020G28KT 10SM CLR 19/13 A2968 RMK AO2 PK WND 17031/0108 SLP047 T01940128
KSPW 210053Z AUTO 16022G28KT 10SM CLR 21/13 A2969 RMK AO2 PK WND 16028/0040 SLP051 T02060128
KSPW 202353Z AUTO 16015KT 10SM CLR 21/13 A2970 RMK AO2 PK WND 16026/2334 SLP054 T02060128 10250 20206 56008
KSPW 202253Z AUTO 17017G28KT 10SM CLR 22/12 A2970 RMK AO2 PK WND 15030/2231 SLP053 T02220122
KSPW 202153Z AUTO 18019G31KT 10SM CLR 23/12 A2971 RMK AO2 PK WND 16032/2054 SLP056 T02330122
KSPW 202053Z AUTO 16023G32KT 10SM CLR 25/11 A2972 RMK AO2 PK WND 18035/2024 SLP061 T02500111 56026
KSPW 201953Z AUTO 18023G31KT 10SM CLR 24/12 A2974 RMK AO2 PK WND 18032/1905 SLP068 T02440122
KSPW 201853Z AUTO 17023G29KT 10SM CLR 24/12 A2977 RMK AO2 PK WND 19031/1826 SLP077 T02440122
KSPW 201753Z AUTO 18022G31KT 10SM CLR 23/12 A2980 RMK AO2 PK WND 17031/1750 SLP089 T02330122 10239 20122 58028
KSPW 201653Z AUTO 19019G27KT 10SM CLR 23/12 A2984 RMK AO2 PK WND 18027/1640 SLP099 T02280117
KSPW 201553Z AUTO 19017G27KT 10SM CLR 21/11 A2987 RMK AO2 PK WND 18027/1549 SLP112 T02060111
KSPW 201453Z AUTO 17012KT 10SM CLR 17/12 A2989 RMK AO2 SLP122 T01670117 58007
KSPW 201353Z AUTO 17012KT 10SM CLR 13/10 A2990 RMK AO2 SLP127 T01330100
KSPW 201253Z AUTO 17010KT 10SM CLR 12/09 A2991 RMK AO2 SLP128 T01220094
KSPW 201153Z AUTO 17007KT 10SM CLR 12/09 A2991 RMK AO2 SLP129 T01220094 10139 20094 56003
KSPW 201053Z AUTO 19008KT 10SM CLR 13/09 A2992 RMK AO2 SLP127 T01330094
KSPW 200953Z AUTO 18008KT 10SM CLR 13/09 A2992 RMK AO2 SLP126 T01280094
KSPW 200853Z AUTO 15007KT 10SM CLR 10/08 A2992 RMK AO2 SLP130 T01000083 58003
KSPW 200753Z AUTO 15005KT 10SM CLR 11/09 A2993 RMK AO2 SLP133 T01060089
KSPW 200653Z AUTO 16006KT 10SM CLR 11/09 A2994 RMK AO2 SLP135 T01110094
KSPW 200553Z AUTO 16006KT 10SM CLR 12/09 A2994 RMK AO2 SLP135 T01170094 10172 20111 402390006 56003
KSPW 200453Z AUTO 17008KT 10SM CLR 13/11 A2994 RMK AO2 SLP136 T01330106
KSPW 200353Z AUTO 17009KT 10SM CLR 14/11 A2994 RMK AO2 SLP138 T01440106
KSPW 200253Z AUTO 16007KT 10SM CLR 13/10 A2995 RMK AO2 SLP142 T01330100 58004
KSPW 200153Z AUTO 16006KT 10SM CLR 13/09 A2995 RMK AO2 SLP147 T01330094
KSPW 200053Z AUTO 15008KT 10SM CLR 15/09 A2996 RMK AO2 SLP150 T01500089
KSPW 192353Z AUTO 15008KT 10SM CLR 17/09 A2996 RMK AO2 SLP149 T01720089 10239 20172 56007
KSPW 192253Z AUTO 16009KT 10SM CLR 21/09 A2996 RMK AO2 SLP147 T02110089
KSPW 192153Z AUTO 17015KT 10SM CLR 23/07 A2997 RMK AO2 SLP149 T02330072
KSPW 192053Z AUTO 18015G22KT 10SM CLR 24/07 A2998 RMK AO2 SLP153 T02390067 56027